createdAt,value
2023-04-15T00:00:58.364Z,23.52
2023-04-15T00:01:58.343Z,23.54
2023-04-15T00:02:58.445Z,23.53
2023-04-15T00:03:58.355Z,23.52
2023-04-15T00:04:58.254Z,23.50
2023-04-15T00:05:58.276Z,23.48
2023-04-15T00:06:58.238Z,23.47
2023-04-15T00:07:58.253Z,23.47
2023-04-15T00:08:58.348Z,23.47
2023-04-15T00:09:58.220Z,23.49
2023-04-15T00:10:58.234Z,23.51
2023-04-15T00:11:58.228Z,23.47
2023-04-15T00:12:58.222Z,23.49
2023-04-15T00:13:58.210Z,23.49
2023-04-15T00:14:58.202Z,23.49
2023-04-15T00:15:58.185Z,23.48
2023-04-15T00:16:58.418Z,23.47
2023-04-15T00:17:58.194Z,23.47
2023-04-15T00:18:58.508Z,23.50
2023-04-15T00:19:58.174Z,23.50
2023-04-15T00:20:58.167Z,23.49
2023-04-15T00:21:58.158Z,23.52
2023-04-15T00:22:58.160Z,23.51
2023-04-15T00:23:58.134Z,23.55
2023-04-15T00:24:58.156Z,23.54
2023-04-15T00:25:58.154Z,23.53
2023-04-15T00:26:58.177Z,23.57
2023-04-15T00:27:58.108Z,23.56
2023-04-15T00:28:58.412Z,23.57
2023-04-15T00:29:58.094Z,23.57
2023-04-15T00:30:58.125Z,23.57
2023-04-15T00:31:58.093Z,23.58
2023-04-15T00:32:58.145Z,23.61
2023-04-15T00:33:58.085Z,23.61
2023-04-15T00:34:58.066Z,23.61
2023-04-15T00:35:58.065Z,23.61
2023-04-15T00:36:58.049Z,23.59
2023-04-15T00:37:58.055Z,23.61
2023-04-15T00:38:58.186Z,23.60
2023-04-15T00:39:58.046Z,23.62
2023-04-15T00:40:58.027Z,23.62
2023-04-15T00:41:58.044Z,23.61
2023-04-15T00:42:58.023Z,23.62
2023-04-15T00:43:58.024Z,23.62
2023-04-15T00:44:58.022Z,23.60
2023-04-15T00:45:58.029Z,23.60
2023-04-15T00:46:58.012Z,23.61
2023-04-15T00:47:58.051Z,23.61
2023-04-15T00:48:58.067Z,23.59
2023-04-15T00:49:58.046Z,23.58
2023-04-15T00:50:57.984Z,23.55
2023-04-15T00:51:57.957Z,23.51
2023-04-15T00:52:57.969Z,23.43
2023-04-15T00:53:57.971Z,23.42
2023-04-15T00:54:57.991Z,23.34
2023-04-15T00:55:57.960Z,23.35
2023-04-15T00:56:57.946Z,23.28
2023-04-15T00:57:57.970Z,23.27
2023-04-15T00:58:58.088Z,23.23
2023-04-15T00:59:57.925Z,23.22
2023-04-15T01:00:57.921Z,23.15
2023-04-15T01:01:58.024Z,23.06
2023-04-15T01:02:58.016Z,23.07
2023-04-15T01:03:58.009Z,23.04
2023-04-15T01:04:57.911Z,23.00
2023-04-15T01:05:57.902Z,22.97
2023-04-15T01:06:57.885Z,22.95
2023-04-15T01:07:57.879Z,22.93
2023-04-15T01:08:57.975Z,22.92
2023-04-15T01:09:57.869Z,22.89
2023-04-15T01:10:57.854Z,22.86
2023-04-15T01:11:57.867Z,22.83
2023-04-15T01:12:57.854Z,22.80
2023-04-15T01:13:57.844Z,22.84
2023-04-15T01:14:57.871Z,22.84
2023-04-15T01:15:57.925Z,22.83
2023-04-15T01:16:57.869Z,22.75
2023-04-15T01:17:57.896Z,22.70
2023-04-15T01:18:57.958Z,22.67
2023-04-15T01:19:57.807Z,22.66
2023-04-15T01:20:57.816Z,22.69
2023-04-15T01:21:57.804Z,22.62
2023-04-15T01:22:57.786Z,22.65
2023-04-15T01:23:57.801Z,22.63
2023-04-15T01:24:57.797Z,22.63
2023-04-15T01:25:57.768Z,22.58
2023-04-15T01:26:57.785Z,22.56
2023-04-15T01:27:57.771Z,22.53
2023-04-15T01:28:57.865Z,22.51
2023-04-15T01:29:57.760Z,22.46
2023-04-15T01:30:57.739Z,22.49
2023-04-15T01:31:57.792Z,22.40
2023-04-15T01:32:57.761Z,22.37
2023-04-15T01:33:57.729Z,22.37
2023-04-15T01:34:57.724Z,22.33
2023-04-15T01:35:57.723Z,22.43
2023-04-15T01:36:57.703Z,22.45
2023-04-15T01:37:57.703Z,22.39
2023-04-15T01:38:57.843Z,22.37
2023-04-15T01:39:57.692Z,22.35
2023-04-15T01:40:57.679Z,22.33
2023-04-15T01:41:57.686Z,22.25
2023-04-15T01:42:57.670Z,22.23
2023-04-15T01:43:57.691Z,22.29
2023-04-15T01:44:57.674Z,22.25
2023-04-15T01:45:57.675Z,22.27
2023-04-15T01:46:57.717Z,22.23
2023-04-15T01:47:57.735Z,22.25
2023-04-15T01:48:57.655Z,22.20
2023-04-15T01:49:57.636Z,22.26
2023-04-15T01:50:57.645Z,22.20
2023-04-15T01:51:57.642Z,22.11
2023-04-15T01:52:57.637Z,22.08
2023-04-15T01:53:57.656Z,22.06
2023-04-15T01:54:57.630Z,22.08
2023-04-15T01:55:57.605Z,22.09
2023-04-15T01:56:57.622Z,22.00
2023-04-15T01:57:57.600Z,21.99
2023-04-15T01:58:57.664Z,22.00
2023-04-15T01:59:57.597Z,21.91
2023-04-15T02:00:57.641Z,21.97
2023-04-15T02:01:57.606Z,22.01
2023-04-15T02:02:57.639Z,21.88
2023-04-15T02:03:57.602Z,21.94
2023-04-15T02:04:57.557Z,21.88
2023-04-15T02:05:57.544Z,21.84
2023-04-15T02:06:57.537Z,21.85
2023-04-15T02:07:57.530Z,21.81
2023-04-15T02:08:57.524Z,21.78
2023-04-15T02:09:57.524Z,21.67
2023-04-15T02:10:57.513Z,21.67
2023-04-15T02:11:57.519Z,21.66
2023-04-15T02:12:57.498Z,21.67
2023-04-15T02:13:57.492Z,21.71
2023-04-15T02:14:57.502Z,21.58
2023-04-15T02:15:57.496Z,21.70
2023-04-15T02:16:57.587Z,21.63
2023-04-15T02:17:57.514Z,21.60
2023-04-15T02:18:57.463Z,21.64
2023-04-15T02:19:57.476Z,21.60
2023-04-15T02:20:57.453Z,21.50
2023-04-15T02:21:57.449Z,21.48
2023-04-15T02:22:57.461Z,21.49
2023-04-15T02:23:57.455Z,21.45
2023-04-15T02:24:57.458Z,21.45
2023-04-15T02:25:57.443Z,21.40
2023-04-15T02:26:57.415Z,21.44
2023-04-15T02:27:57.427Z,21.35
2023-04-15T02:28:57.409Z,21.28
2023-04-15T02:29:57.420Z,21.31
2023-04-15T02:30:57.423Z,21.33
2023-04-15T02:31:57.441Z,21.34
2023-04-15T02:32:57.425Z,21.27
2023-04-15T02:33:57.399Z,21.28
2023-04-15T02:34:57.375Z,21.30
2023-04-15T02:35:57.375Z,21.22
2023-04-15T02:36:57.387Z,21.22
2023-04-15T02:37:57.371Z,21.20
2023-04-15T02:38:57.360Z,21.19
2023-04-15T02:39:57.348Z,21.19
2023-04-15T02:40:57.333Z,21.17
2023-04-15T02:41:57.330Z,21.12
2023-04-15T02:42:57.332Z,21.08
2023-04-15T02:43:57.342Z,21.12
2023-04-15T02:44:57.314Z,21.13
2023-04-15T02:45:57.343Z,21.08
2023-04-15T02:46:57.313Z,21.03
2023-04-15T02:47:57.334Z,21.05
2023-04-15T02:48:57.297Z,21.02
2023-04-15T02:49:57.306Z,21.03
2023-04-15T02:50:57.290Z,21.03
2023-04-15T02:51:57.287Z,21.00
2023-04-15T02:52:57.282Z,21.04
2023-04-15T02:53:57.303Z,21.02
2023-04-15T02:54:57.259Z,21.00
2023-04-15T02:55:57.263Z,20.96
2023-04-15T02:56:57.254Z,20.93
2023-04-15T02:57:57.248Z,20.90
2023-04-15T02:58:57.248Z,20.85
2023-04-15T02:59:57.248Z,20.90
2023-04-15T03:00:57.236Z,20.88
2023-04-15T03:01:57.238Z,20.93
2023-04-15T03:02:57.313Z,20.89
2023-04-15T03:03:57.302Z,20.86
2023-04-15T03:04:57.206Z,20.85
2023-04-15T03:05:57.213Z,20.86
2023-04-15T03:06:57.178Z,20.76
2023-04-15T03:07:57.185Z,20.87
2023-04-15T03:08:57.193Z,20.83
2023-04-15T03:09:57.159Z,20.85
2023-04-15T03:10:57.154Z,20.79
2023-04-15T03:11:57.150Z,20.82
2023-04-15T03:12:57.139Z,20.78
2023-04-15T03:13:57.145Z,20.79
2023-04-15T03:14:57.136Z,20.77
2023-04-15T03:15:57.193Z,20.69
2023-04-15T03:16:57.114Z,20.77
2023-04-15T03:17:57.204Z,20.77
2023-04-15T03:18:57.107Z,20.74
2023-04-15T03:19:57.195Z,20.74
2023-04-15T03:20:57.098Z,20.76
2023-04-15T03:21:57.115Z,20.73
2023-04-15T03:22:57.094Z,20.69
2023-04-15T03:23:57.098Z,20.74
2023-04-15T03:24:57.069Z,20.74
2023-04-15T03:25:57.068Z,20.70
2023-04-15T03:26:57.057Z,20.76
2023-04-15T03:27:57.077Z,20.71
2023-04-15T03:28:57.061Z,20.63
2023-04-15T03:29:57.071Z,20.64
2023-04-15T03:30:57.092Z,20.60
2023-04-15T03:31:57.033Z,20.57
2023-04-15T03:32:57.041Z,20.57
2023-04-15T03:33:57.049Z,20.54
2023-04-15T03:34:57.053Z,20.57
2023-04-15T03:35:57.018Z,20.60
2023-04-15T03:36:57.012Z,20.56
2023-04-15T03:37:57.013Z,20.51
2023-04-15T03:38:57.014Z,20.55
2023-04-15T03:39:56.999Z,20.52
2023-04-15T03:40:57.000Z,20.52
2023-04-15T03:41:56.997Z,20.49
2023-04-15T03:42:56.976Z,20.49
2023-04-15T03:43:56.956Z,20.45
2023-04-15T03:44:56.966Z,20.45
2023-04-15T03:45:56.950Z,20.43
2023-04-15T03:46:56.960Z,20.48
2023-04-15T03:47:58.677Z,20.45
2023-04-15T03:48:57.928Z,20.43
2023-04-15T03:49:56.920Z,20.40
2023-04-15T03:50:56.934Z,20.40
2023-04-15T03:51:56.907Z,20.36
2023-04-15T03:52:56.921Z,20.34
2023-04-15T03:53:56.914Z,20.31
2023-04-15T03:54:56.893Z,20.34
2023-04-15T03:55:56.883Z,20.39
2023-04-15T03:56:56.926Z,20.32
2023-04-15T03:57:56.884Z,20.31
2023-04-15T03:58:56.867Z,20.29
2023-04-15T03:59:56.872Z,20.25
2023-04-15T04:00:56.863Z,20.23
2023-04-15T04:01:56.915Z,20.27
2023-04-15T04:02:57.064Z,20.26
2023-04-15T04:03:56.894Z,20.26
2023-04-15T04:04:56.827Z,20.23
2023-04-15T04:05:56.821Z,20.26
2023-04-15T04:06:56.826Z,20.25
2023-04-15T04:07:56.819Z,20.20
2023-04-15T04:08:56.818Z,20.27
2023-04-15T04:09:56.814Z,20.22
2023-04-15T04:10:56.807Z,20.24
2023-04-15T04:11:56.796Z,20.25
2023-04-15T04:12:56.779Z,20.20
2023-04-15T04:13:56.791Z,20.21
2023-04-15T04:14:56.784Z,20.18
2023-04-15T04:15:56.795Z,20.20
2023-04-15T04:16:56.809Z,20.15
2023-04-15T04:17:56.824Z,20.18
2023-04-15T04:18:56.754Z,20.22
2023-04-15T04:19:56.737Z,20.14
2023-04-15T04:20:56.748Z,20.15
2023-04-15T04:21:56.725Z,20.12
2023-04-15T04:22:56.732Z,20.07
2023-04-15T04:23:56.776Z,20.10
2023-04-15T04:24:56.705Z,20.04
2023-04-15T04:25:56.700Z,20.02
2023-04-15T04:26:56.724Z,19.97
2023-04-15T04:27:56.721Z,19.97
2023-04-15T04:28:56.716Z,20.06
2023-04-15T04:29:56.726Z,19.94
2023-04-15T04:30:56.736Z,19.91
2023-04-15T04:31:56.766Z,19.92
2023-04-15T04:32:56.767Z,19.97
2023-04-15T04:33:56.723Z,19.87
2023-04-15T04:34:56.744Z,19.91
2023-04-15T04:35:56.763Z,19.86
2023-04-15T04:36:56.783Z,19.89
2023-04-15T04:37:56.798Z,19.82
2023-04-15T04:38:56.798Z,19.89
2023-04-15T04:39:56.786Z,19.86
2023-04-15T04:40:56.795Z,19.80
2023-04-15T04:41:56.815Z,19.80
2023-04-15T04:42:56.820Z,19.76
2023-04-15T04:43:56.841Z,19.83
2023-04-15T04:44:56.816Z,19.80
2023-04-15T04:45:56.865Z,19.82
2023-04-15T04:46:56.819Z,19.82
2023-04-15T04:47:56.848Z,19.81
2023-04-15T04:48:56.850Z,19.72
2023-04-15T04:49:56.863Z,19.73
2023-04-15T04:50:56.849Z,19.74
2023-04-15T04:51:56.856Z,19.77
2023-04-15T04:52:56.860Z,19.79
2023-04-15T04:53:56.878Z,19.76
2023-04-15T04:54:56.905Z,19.78
2023-04-15T04:55:56.899Z,19.76
2023-04-15T04:56:56.898Z,19.72
2023-04-15T04:57:56.886Z,19.68
2023-04-15T04:58:56.916Z,19.71
2023-04-15T04:59:56.897Z,19.75
2023-04-15T05:00:56.921Z,19.73
2023-04-15T05:01:56.934Z,19.72
2023-04-15T05:02:57.075Z,19.71
2023-04-15T05:03:57.060Z,19.68
2023-04-15T05:04:56.927Z,19.65
2023-04-15T05:05:56.933Z,19.66
2023-04-15T05:06:56.934Z,19.63
2023-04-15T05:07:56.926Z,19.65
2023-04-15T05:08:56.943Z,19.67
2023-04-15T05:09:56.946Z,19.65
2023-04-15T05:10:56.967Z,19.65
2023-04-15T05:11:56.945Z,19.68
2023-04-15T05:12:56.947Z,19.63
2023-04-15T05:13:56.966Z,19.56
2023-04-15T05:14:56.974Z,19.57
2023-04-15T05:15:57.046Z,19.64
2023-04-15T05:16:56.964Z,19.62
2023-04-15T05:17:56.979Z,19.60
2023-04-15T05:18:56.965Z,19.62
2023-04-15T05:19:56.977Z,19.65
2023-04-15T05:20:56.986Z,19.67
2023-04-15T05:21:56.989Z,19.65
2023-04-15T05:22:56.965Z,19.67
2023-04-15T05:23:56.968Z,19.59
2023-04-15T05:24:56.969Z,19.64
2023-04-15T05:25:56.973Z,19.56
2023-04-15T05:26:56.981Z,19.55
2023-04-15T05:27:56.981Z,19.57
2023-04-15T05:28:56.978Z,19.51
2023-04-15T05:29:56.997Z,19.50
2023-04-15T05:30:57.045Z,19.55
2023-04-15T05:31:56.975Z,19.51
2023-04-15T05:32:57.019Z,19.51
2023-04-15T05:33:56.988Z,19.43
2023-04-15T05:34:56.996Z,19.45
2023-04-15T05:35:56.979Z,19.42
2023-04-15T05:36:56.976Z,19.38
2023-04-15T05:37:56.989Z,19.40
2023-04-15T05:38:56.972Z,19.49
2023-04-15T05:39:56.990Z,19.43
2023-04-15T05:40:56.977Z,19.48
2023-04-15T05:41:56.981Z,19.49
2023-04-15T05:42:56.994Z,19.49
2023-04-15T05:43:56.994Z,19.45
2023-04-15T05:44:56.998Z,19.47
2023-04-15T05:45:57.036Z,19.48
2023-04-15T05:46:57.013Z,19.48
2023-04-15T05:47:57.018Z,19.43
2023-04-15T05:48:56.992Z,19.50
2023-04-15T05:49:57.025Z,19.47
2023-04-15T05:50:57.025Z,19.46
2023-04-15T05:51:57.017Z,19.46
2023-04-15T05:52:57.018Z,19.52
2023-04-15T05:53:57.000Z,19.56
2023-04-15T05:54:57.009Z,19.53
2023-04-15T05:55:57.005Z,19.53
2023-04-15T05:56:57.016Z,19.55
2023-04-15T05:57:57.009Z,19.51
2023-04-15T05:58:57.013Z,19.56
2023-04-15T05:59:57.010Z,19.51
2023-04-15T06:00:56.992Z,19.49
2023-04-15T06:01:57.017Z,19.53
2023-04-15T06:02:57.075Z,19.51
2023-04-15T06:03:57.238Z,19.49
2023-04-15T06:04:57.070Z,19.53
2023-04-15T06:05:57.004Z,19.63
2023-04-15T06:06:56.990Z,19.51
2023-04-15T06:07:57.028Z,19.50
2023-04-15T06:08:56.999Z,19.47
2023-04-15T06:09:57.042Z,19.42
2023-04-15T06:10:56.990Z,19.40
2023-04-15T06:11:57.042Z,19.38
2023-04-15T06:12:56.988Z,19.38
2023-04-15T06:13:57.007Z,19.36
2023-04-15T06:14:58.941Z,19.32
2023-04-15T06:15:57.068Z,19.38
2023-04-15T06:16:56.991Z,19.42
2023-04-15T06:17:57.023Z,19.36
2023-04-15T06:18:56.980Z,19.43
2023-04-15T06:19:56.965Z,19.40
2023-04-15T06:20:56.971Z,19.49
2023-04-15T06:21:56.952Z,19.46
2023-04-15T06:22:56.939Z,19.39
2023-04-15T06:23:56.949Z,19.40
2023-04-15T06:24:56.948Z,19.38
2023-04-15T06:25:56.918Z,19.44
2023-04-15T06:26:56.929Z,19.33
2023-04-15T06:27:56.934Z,19.31
2023-04-15T06:28:56.900Z,19.34
2023-04-15T06:29:56.919Z,19.32
2023-04-15T06:30:56.893Z,19.23
2023-04-15T06:31:56.905Z,19.21
2023-04-15T06:32:56.887Z,19.23
2023-04-15T06:33:56.882Z,19.26
2023-04-15T06:34:56.917Z,19.30
2023-04-15T06:35:56.850Z,19.32
2023-04-15T06:36:56.862Z,19.25
2023-04-15T06:37:56.835Z,19.24
2023-04-15T06:38:56.838Z,19.22
2023-04-15T06:39:56.850Z,19.20
2023-04-15T06:40:56.810Z,19.24
2023-04-15T06:41:56.827Z,19.22
2023-04-15T06:42:56.838Z,19.26
2023-04-15T06:43:56.842Z,19.26
2023-04-15T06:44:56.804Z,19.28
2023-04-15T06:45:56.875Z,19.29
2023-04-15T06:46:56.794Z,19.26
2023-04-15T06:47:56.802Z,19.29
2023-04-15T06:48:56.779Z,19.30
2023-04-15T06:49:56.789Z,19.33
2023-04-15T06:50:56.758Z,19.33
2023-04-15T06:51:56.758Z,19.31
2023-04-15T06:52:56.754Z,19.28
2023-04-15T06:53:56.752Z,19.27
2023-04-15T06:54:56.752Z,19.27
2023-04-15T06:55:56.751Z,19.31
2023-04-15T06:56:56.749Z,19.30
2023-04-15T06:57:56.737Z,19.30
2023-04-15T06:58:56.747Z,19.31
2023-04-15T06:59:56.728Z,19.24
2023-04-15T07:00:56.750Z,19.32
2023-04-15T07:01:56.729Z,19.28
2023-04-15T07:02:56.723Z,19.34
2023-04-15T07:03:56.689Z,19.31
2023-04-15T07:04:56.712Z,19.30
2023-04-15T07:05:56.675Z,19.32
2023-04-15T07:06:56.674Z,19.31
2023-04-15T07:07:56.668Z,19.33
2023-04-15T07:08:56.665Z,19.31
2023-04-15T07:09:56.648Z,19.36
2023-04-15T07:10:56.649Z,19.35
2023-04-15T07:11:56.659Z,19.31
2023-04-15T07:12:56.638Z,19.30
2023-04-15T07:13:56.650Z,19.31
2023-04-15T07:14:56.620Z,19.31
2023-04-15T07:15:56.639Z,19.28
2023-04-15T07:16:56.718Z,19.27
2023-04-15T07:17:56.666Z,19.30
2023-04-15T07:18:56.597Z,19.30
2023-04-15T07:19:56.614Z,19.31
2023-04-15T07:20:56.580Z,19.28
2023-04-15T07:21:56.588Z,19.26
2023-04-15T07:22:56.561Z,19.30
2023-04-15T07:23:56.574Z,19.34
2023-04-15T07:24:56.561Z,19.32
2023-04-15T07:25:56.559Z,19.32
2023-04-15T07:26:57.960Z,19.31
2023-04-15T07:27:56.539Z,19.29
2023-04-15T07:28:56.535Z,19.28
2023-04-15T07:29:56.540Z,19.31
2023-04-15T07:30:56.589Z,19.33
2023-04-15T07:31:56.559Z,19.32
2023-04-15T07:32:56.574Z,19.31
2023-04-15T07:33:56.542Z,19.30
2023-04-15T07:34:56.601Z,19.29
2023-04-15T07:35:56.670Z,19.27
2023-04-15T07:36:56.736Z,19.29
2023-04-15T07:37:56.801Z,19.25
2023-04-15T07:38:56.880Z,19.24
2023-04-15T07:39:56.924Z,19.26
2023-04-15T07:40:56.977Z,19.26
2023-04-15T07:41:57.055Z,19.29
2023-04-15T07:42:57.108Z,19.23
2023-04-15T07:43:57.171Z,19.22
2023-04-15T07:44:57.256Z,19.24
2023-04-15T07:45:57.299Z,19.22
2023-04-15T07:46:57.346Z,19.22
2023-04-15T07:47:57.461Z,19.24
2023-04-15T07:48:57.509Z,19.22
2023-04-15T07:49:57.543Z,19.19
2023-04-15T07:50:57.608Z,19.17
2023-04-15T07:51:57.685Z,19.20
2023-04-15T07:52:57.734Z,19.22
2023-04-15T07:53:57.776Z,19.18
2023-04-15T07:54:57.855Z,19.18
2023-04-15T07:55:57.946Z,19.16
2023-04-15T07:56:57.992Z,19.19
2023-04-15T07:57:58.067Z,19.13
2023-04-15T07:58:58.165Z,19.14
2023-04-15T07:59:58.186Z,19.14
2023-04-15T08:00:58.234Z,19.11
2023-04-15T08:01:58.335Z,19.12
2023-04-15T08:02:58.428Z,19.11
2023-04-15T08:03:58.591Z,19.07
2023-04-15T08:04:58.522Z,19.06
2023-04-15T08:05:58.540Z,19.07
2023-04-15T08:06:58.584Z,19.11
2023-04-15T08:07:58.674Z,19.07
2023-04-15T08:08:58.703Z,19.04
2023-04-15T08:09:58.773Z,19.02
2023-04-15T08:10:58.811Z,19.01
2023-04-15T08:11:58.869Z,19.00
2023-04-15T08:12:58.908Z,19.00
2023-04-15T08:13:58.983Z,19.03
2023-04-15T08:14:59.037Z,19.02
2023-04-15T08:15:59.096Z,19.02
2023-04-15T08:16:59.123Z,19.03
2023-04-15T08:17:59.183Z,19.03
2023-04-15T08:18:59.208Z,19.04
2023-04-15T08:19:59.254Z,19.06
2023-04-15T08:20:59.297Z,19.04
2023-04-15T08:21:59.370Z,19.03
2023-04-15T08:22:59.395Z,19.05
2023-04-15T08:23:59.434Z,19.06
2023-04-15T08:24:59.501Z,19.07
2023-04-15T08:25:59.541Z,19.11
2023-04-15T08:26:59.575Z,19.12
2023-04-15T08:27:59.662Z,19.13
2023-04-15T08:28:59.795Z,19.14
2023-04-15T08:29:59.721Z,19.18
2023-04-15T08:30:59.736Z,19.20
2023-04-15T08:31:59.826Z,19.19
2023-04-15T08:32:59.885Z,19.23
2023-04-15T08:33:59.874Z,19.20
2023-04-15T08:34:59.897Z,19.20
2023-04-15T08:35:59.943Z,19.22
2023-04-15T08:36:59.971Z,19.22
2023-04-15T08:38:00.004Z,19.22
2023-04-15T08:39:00.254Z,19.22
2023-04-15T08:40:00.080Z,19.23
2023-04-15T08:41:00.168Z,19.23
2023-04-15T08:42:00.170Z,19.23
2023-04-15T08:43:00.177Z,19.22
2023-04-15T08:44:00.245Z,19.22
2023-04-15T08:45:00.244Z,19.19
2023-04-15T08:46:00.272Z,19.18
2023-04-15T08:47:00.357Z,19.22
2023-04-15T08:48:00.425Z,19.23
2023-04-15T08:49:00.586Z,19.22
2023-04-15T08:50:00.409Z,19.19
2023-04-15T08:51:00.427Z,19.17
2023-04-15T08:52:00.442Z,19.15
2023-04-15T08:53:00.485Z,19.14
2023-04-15T08:54:00.487Z,19.14
2023-04-15T08:55:00.528Z,19.10
2023-04-15T08:56:00.584Z,19.13
2023-04-15T08:57:00.632Z,19.11
2023-04-15T08:58:00.722Z,19.16
2023-04-15T08:59:00.905Z,19.14
2023-04-15T09:00:02.881Z,19.14
2023-04-15T09:01:00.840Z,19.19
2023-04-15T09:02:00.795Z,19.15
2023-04-15T09:03:00.822Z,19.14
2023-04-15T09:04:00.811Z,19.15
2023-04-15T09:05:00.799Z,19.07
2023-04-15T09:06:00.777Z,19.07
2023-04-15T09:07:00.776Z,19.05
2023-04-15T09:08:00.804Z,19.01
2023-04-15T09:09:00.866Z,18.95
2023-04-15T09:10:00.760Z,18.94
2023-04-15T09:11:00.750Z,18.97
2023-04-15T09:12:00.740Z,18.95
2023-04-15T09:13:00.731Z,18.93
2023-04-15T09:14:00.732Z,18.93
2023-04-15T09:15:00.723Z,18.93
2023-04-15T09:16:00.706Z,18.91
2023-04-15T09:17:00.817Z,18.87
2023-04-15T09:18:00.746Z,18.88
2023-04-15T09:19:00.953Z,18.86
2023-04-15T09:20:00.690Z,18.85
2023-04-15T09:21:00.665Z,18.79
2023-04-15T09:22:00.661Z,18.75
2023-04-15T09:23:00.662Z,18.71
2023-04-15T09:24:00.926Z,18.69
2023-04-15T09:25:00.662Z,18.67
2023-04-15T09:26:00.644Z,18.69
2023-04-15T09:27:00.642Z,18.67
2023-04-15T09:28:00.632Z,18.68
2023-04-15T09:29:00.635Z,18.66
2023-04-15T09:30:00.626Z,18.63
2023-04-15T09:31:00.637Z,18.62
2023-04-15T09:32:00.613Z,18.64
2023-04-15T09:33:00.657Z,18.59
2023-04-15T09:34:00.861Z,18.57
2023-04-15T09:35:00.588Z,18.57
2023-04-15T09:36:00.574Z,18.55
2023-04-15T09:37:00.673Z,18.55
2023-04-15T09:38:00.574Z,18.53
2023-04-15T09:39:00.592Z,18.54
2023-04-15T09:40:00.603Z,18.53
2023-04-15T09:41:00.563Z,18.49
2023-04-15T09:42:00.547Z,18.50
2023-04-15T09:43:00.532Z,18.51
2023-04-15T09:44:00.737Z,18.49
2023-04-15T09:45:00.533Z,18.49
2023-04-15T09:46:00.543Z,18.49
2023-04-15T09:47:00.505Z,18.48
2023-04-15T09:48:00.543Z,18.47
2023-04-15T09:49:00.526Z,18.45
2023-04-15T09:50:00.596Z,18.41
2023-04-15T09:51:00.477Z,18.41
2023-04-15T09:52:05.574Z,18.41
2023-04-15T09:53:01.486Z,18.40
2023-04-15T09:54:00.560Z,18.38
2023-04-15T09:55:00.498Z,18.35
2023-04-15T09:56:00.465Z,18.32
2023-04-15T09:57:00.448Z,18.32
2023-04-15T09:58:00.443Z,18.29
2023-04-15T09:59:00.456Z,18.29
2023-04-15T10:00:00.424Z,18.29
2023-04-15T10:01:00.474Z,18.27
2023-04-15T10:02:00.481Z,18.21
2023-04-15T10:03:00.495Z,18.23
2023-04-15T10:04:00.753Z,18.21
2023-04-15T10:05:00.412Z,18.24
2023-04-15T10:06:00.389Z,18.20
2023-04-15T10:07:00.386Z,18.21
2023-04-15T10:08:00.379Z,18.18
2023-04-15T10:09:00.378Z,18.19
2023-04-15T10:10:00.398Z,18.20
2023-04-15T10:11:00.357Z,18.18
2023-04-15T10:12:00.364Z,18.19
2023-04-15T10:13:00.354Z,18.17
2023-04-15T10:14:00.645Z,18.20
2023-04-15T10:15:00.360Z,18.16
2023-04-15T10:16:00.455Z,18.16
2023-04-15T10:17:00.408Z,18.15
2023-04-15T10:18:00.476Z,18.15
2023-04-15T10:19:00.508Z,18.14
2023-04-15T10:20:00.580Z,18.18
2023-04-15T10:21:00.602Z,18.16
2023-04-15T10:22:00.612Z,18.12
2023-04-15T10:23:00.623Z,18.12
2023-04-15T10:24:00.805Z,18.12
2023-04-15T10:25:00.773Z,18.15
2023-04-15T10:26:00.795Z,18.12
2023-04-15T10:27:00.841Z,18.09
2023-04-15T10:28:00.919Z,18.10
2023-04-15T10:29:00.949Z,18.06
2023-04-15T10:30:00.995Z,18.05
2023-04-15T10:31:01.069Z,18.06
2023-04-15T10:32:01.101Z,18.07
2023-04-15T10:33:01.164Z,18.07
2023-04-15T10:34:01.371Z,18.06
2023-04-15T10:35:01.144Z,18.05
2023-04-15T10:36:01.178Z,18.04
2023-04-15T10:37:01.202Z,18.01
2023-04-15T10:38:01.189Z,18.01
2023-04-15T10:39:01.224Z,18.02
2023-04-15T10:40:01.228Z,18.00
2023-04-15T10:41:01.243Z,17.98
2023-04-15T10:42:01.258Z,17.97
2023-04-15T10:43:01.289Z,17.98
2023-04-15T10:44:01.666Z,17.95
2023-04-15T10:45:01.305Z,17.97
2023-04-15T10:46:01.326Z,17.97
2023-04-15T10:47:01.381Z,17.97
2023-04-15T10:48:02.969Z,17.92
2023-04-15T10:49:01.431Z,17.92
2023-04-15T10:50:01.499Z,17.90
2023-04-15T10:51:01.562Z,17.94
2023-04-15T10:52:01.592Z,17.91
2023-04-15T10:53:01.723Z,17.87
2023-04-15T10:54:01.751Z,17.90
2023-04-15T10:55:01.875Z,17.93
2023-04-15T10:56:01.867Z,17.84
2023-04-15T10:57:01.942Z,17.83
2023-04-15T10:58:01.963Z,17.82
2023-04-15T10:59:02.034Z,17.82
2023-04-15T11:00:02.083Z,17.81
2023-04-15T11:01:02.175Z,17.81
2023-04-15T11:02:02.248Z,17.81
2023-04-15T11:03:02.436Z,17.81
2023-04-15T11:04:02.845Z,17.78
2023-04-15T11:05:02.423Z,17.79
2023-04-15T11:06:02.453Z,17.79
2023-04-15T11:07:02.498Z,17.83
2023-04-15T11:08:02.582Z,17.77
2023-04-15T11:09:02.632Z,17.77
2023-04-15T11:10:02.694Z,17.75
2023-04-15T11:11:02.761Z,17.81
2023-04-15T11:12:02.844Z,17.81
2023-04-15T11:13:02.868Z,17.85
2023-04-15T11:14:03.174Z,17.87
2023-04-15T11:15:03.014Z,17.81
2023-04-15T11:16:03.283Z,17.81
2023-04-15T11:17:03.103Z,17.90
2023-04-15T11:18:03.240Z,17.85
2023-04-15T11:19:03.225Z,17.87
2023-04-15T11:20:03.283Z,17.87
2023-04-15T11:21:03.318Z,17.89
2023-04-15T11:22:03.381Z,17.89
2023-04-15T11:23:14.533Z,17.89
2023-04-15T11:24:04.433Z,17.90
2023-04-15T11:25:03.415Z,17.92
2023-04-15T11:26:03.424Z,17.95
2023-04-15T11:27:03.406Z,17.98
2023-04-15T11:28:03.410Z,18.01
2023-04-15T11:29:03.608Z,18.03
2023-04-15T11:30:03.383Z,18.00
2023-04-15T11:31:03.385Z,17.99
2023-04-15T11:32:03.402Z,18.00
2023-04-15T11:33:03.402Z,18.05
2023-04-15T11:34:03.406Z,18.02
2023-04-15T11:35:03.490Z,18.03
2023-04-15T11:36:03.509Z,18.07
2023-04-15T11:37:03.555Z,18.10
2023-04-15T11:38:03.613Z,18.12
2023-04-15T11:39:03.654Z,18.12
2023-04-15T11:40:03.728Z,18.12
2023-04-15T11:41:03.788Z,18.10
2023-04-15T11:42:03.830Z,18.11
2023-04-15T11:43:03.893Z,18.12
2023-04-15T11:44:04.151Z,18.12
2023-04-15T11:45:04.029Z,18.14
2023-04-15T11:46:04.098Z,18.15
2023-04-15T11:47:04.085Z,18.14
2023-04-15T11:48:04.188Z,18.14
2023-04-15T11:49:04.139Z,18.13
2023-04-15T11:50:04.158Z,18.16
2023-04-15T11:51:04.192Z,18.18
2023-04-15T11:52:04.256Z,18.19
2023-04-15T11:53:06.218Z,18.18
2023-04-15T11:54:04.760Z,18.23
2023-04-15T11:55:04.300Z,18.24
2023-04-15T11:56:04.273Z,18.20
2023-04-15T11:57:04.293Z,18.22
2023-04-15T11:58:04.261Z,18.21
2023-04-15T11:59:04.253Z,18.21
2023-04-15T12:00:04.253Z,18.26
2023-04-15T12:01:04.262Z,18.25
2023-04-15T12:02:04.340Z,18.25
2023-04-15T12:03:04.450Z,18.27
2023-04-15T12:04:05.077Z,18.28
2023-04-15T12:05:04.276Z,18.28
2023-04-15T12:06:04.210Z,18.30
2023-04-15T12:07:04.210Z,18.30
2023-04-15T12:08:04.194Z,18.31
2023-04-15T12:09:04.208Z,18.33
2023-04-15T12:10:04.210Z,18.34
2023-04-15T12:11:04.190Z,18.38
2023-04-15T12:12:04.185Z,18.35
2023-04-15T12:13:04.170Z,18.38
2023-04-15T12:14:04.346Z,18.38
2023-04-15T12:15:04.171Z,18.37
2023-04-15T12:16:04.221Z,18.39
2023-04-15T12:17:04.157Z,18.39
2023-04-15T12:18:05.138Z,18.40
2023-04-15T12:19:04.128Z,18.40
2023-04-15T12:20:04.152Z,18.40
2023-04-15T12:21:04.134Z,18.42
2023-04-15T12:22:04.145Z,18.41
2023-04-15T12:23:04.102Z,18.40
2023-04-15T12:24:04.332Z,18.41
2023-04-15T12:25:04.141Z,18.40
2023-04-15T12:26:04.099Z,18.40
2023-04-15T12:27:04.109Z,18.41
2023-04-15T12:28:04.075Z,18.45
2023-04-15T12:29:04.089Z,18.48
2023-04-15T12:30:04.100Z,18.46
2023-04-15T12:31:04.190Z,18.44
2023-04-15T12:32:04.054Z,18.45
2023-04-15T12:33:04.062Z,18.45
2023-04-15T12:34:04.230Z,18.47
2023-04-15T12:35:04.050Z,18.47
2023-04-15T12:36:04.054Z,18.50
2023-04-15T12:37:04.036Z,18.51
2023-04-15T12:38:04.023Z,18.52
2023-04-15T12:39:04.014Z,18.54
2023-04-15T12:40:04.018Z,18.52
2023-04-15T12:41:04.017Z,18.55
2023-04-15T12:42:03.996Z,18.56
2023-04-15T12:43:03.995Z,18.56
2023-04-15T12:44:04.317Z,18.60
2023-04-15T12:45:04.027Z,18.59
2023-04-15T12:46:04.070Z,18.63
2023-04-15T12:47:04.096Z,18.62
2023-04-15T12:48:04.056Z,18.61
2023-04-15T12:49:04.045Z,18.63
2023-04-15T12:50:04.050Z,18.67
2023-04-15T12:51:05.747Z,18.68
2023-04-15T12:52:04.039Z,18.69
2023-04-15T12:53:04.032Z,18.72